createdAt,value
2023-02-26T00:02:50.280Z,100773.66
2023-02-26T00:12:55.778Z,100788.72
2023-02-26T00:23:00.579Z,100790.50
2023-02-26T00:33:08.603Z,100817.22
2023-02-26T00:43:16.434Z,100834.22
2023-02-26T00:53:28.265Z,100845.09
2023-02-26T01:03:33.287Z,100850.44
2023-02-26T01:13:38.258Z,100854.53
2023-02-26T01:23:47.256Z,100861.81
2023-02-26T01:33:55.294Z,100853.59
2023-02-26T01:44:06.217Z,100864.50
2023-02-26T01:54:10.776Z,100864.81
2023-02-26T02:04:17.164Z,100870.25
2023-02-26T02:14:31.242Z,100865.13
2023-02-26T03:39:11.072Z,100937.91
2023-02-26T03:49:19.154Z,100945.47
2023-02-26T03:59:24.851Z,100972.19
2023-02-26T04:09:59.870Z,100989.53
2023-02-26T04:20:10.532Z,101006.00
2023-02-26T04:30:14.900Z,100991.28
2023-02-26T04:40:20.687Z,101010.63
2023-02-26T04:50:23.756Z,101012.78
2023-02-26T05:00:30.791Z,101028.94
2023-02-26T05:10:34.414Z,101052.44
2023-02-26T05:20:39.177Z,101059.13
2023-02-26T05:30:42.383Z,101071.63
2023-02-26T05:40:46.826Z,101088.81
2023-02-26T05:50:51.571Z,101101.53
2023-02-26T06:00:56.140Z,101097.31
2023-02-26T06:10:59.193Z,101116.03
2023-02-26T06:21:03.852Z,101121.59
2023-02-26T06:31:06.808Z,101136.78
2023-02-26T06:41:11.205Z,101157.00
2023-02-26T06:51:14.334Z,101184.75
2023-02-26T07:01:18.799Z,101211.75
2023-02-26T07:11:22.293Z,101242.25
2023-02-26T07:21:26.610Z,101249.09
2023-02-26T07:31:29.562Z,101269.69
2023-02-26T07:41:35.181Z,101291.59
2023-02-26T07:51:38.489Z,101288.50
2023-02-26T08:01:42.964Z,101300.47
2023-02-26T08:11:47.751Z,101318.78
2023-02-26T08:21:52.297Z,101324.75
2023-02-26T08:31:55.322Z,101331.00
2023-02-26T08:41:59.938Z,101340.34
2023-02-26T08:52:03.113Z,101346.09
2023-02-26T09:02:07.783Z,101353.34
2023-02-26T09:12:10.786Z,101359.56
2023-02-26T09:22:15.208Z,101369.66
2023-02-26T09:32:18.296Z,101381.66
2023-02-26T09:42:37.691Z,101386.06
2023-02-26T09:52:45.929Z,101408.00
2023-02-26T10:03:00.131Z,101419.09
2023-02-26T10:13:03.511Z,101417.78
2023-02-26T10:23:16.772Z,101444.22
2023-02-26T10:33:29.704Z,101455.03
2023-02-26T10:43:41.419Z,101442.44
2023-02-26T10:53:46.900Z,101441.06
2023-02-26T11:03:55.927Z,101467.97
2023-02-26T11:13:58.882Z,101447.81
2023-02-26T11:24:08.585Z,101448.69
2023-02-26T11:34:13.145Z,101466.25
2023-02-26T11:44:22.611Z,101484.69
2023-02-26T11:54:29.723Z,101483.50
2023-02-26T12:04:34.605Z,101462.50
2023-02-26T12:14:48.934Z,101456.38
2023-02-26T12:25:10.159Z,101467.25
2023-02-26T12:35:44.059Z,101468.16
2023-02-26T12:45:56.135Z,101471.00
2023-02-26T12:56:13.218Z,101467.28
2023-02-26T13:06:40.626Z,101467.03
2023-02-26T13:16:51.934Z,101465.63
2023-02-26T13:26:56.893Z,101470.78
